Time;durP1;ratioP1;P1;durP2;ratioP2;P2;SDS_P1;SDS_P2;PMS_P1;PMS_P2;Temp;Humidity;BMP_temperature;BMP_pressure;BME280_temperature;BME280_humidity;BME280_pressure;Samples;Min_cycle;Max_cycle;Signal;HPM_P1;HPM_P2
2022/01/04 00:00:34;;;;;;;5.43;4.20;;;10.00;99.90;;;;;;5135511;27;20023;-65
2022/01/04 00:03:00;;;;;;;7.82;4.90;;;10.00;99.90;;;;;;5134991;27;20483;-66
2022/01/04 00:05:25;;;;;;;7.93;4.18;;;9.90;99.90;;;;;;5135894;27;20027;-68
2022/01/04 00:07:51;;;;;;;10.15;4.47;;;9.90;99.90;;;;;;5133951;27;20019;-68
2022/01/04 00:10:21;;;;;;;8.57;4.57;;;9.90;99.90;;;;;;5133781;27;20027;-69
2022/01/04 00:15:31;;;;;;;7.80;5.10;;;9.90;99.90;;;;;;5136465;27;20087;-72
2022/01/04 00:17:57;;;;;;;6.40;4.97;;;9.90;99.90;;;;;;5133612;27;20035;-67
2022/01/04 00:20:23;;;;;;;10.43;4.68;;;9.90;99.90;;;;;;5133599;27;20480;-67
2022/01/04 00:22:48;;;;;;;6.35;4.78;;;9.90;99.90;;;;;;5135112;27;20039;-67
2022/01/04 00:25:15;;;;;;;8.32;4.30;;;9.90;99.90;;;;;;5134596;27;20474;-66
2022/01/04 00:27:41;;;;;;;6.68;4.35;;;9.90;99.90;;;;;;5135799;27;20031;-68
2022/01/04 00:30:08;;;;;;;5.07;3.97;;;9.90;99.90;;;;;;5135138;27;20099;-74
2022/01/04 00:32:33;;;;;;;4.22;3.25;;;9.90;99.90;;;;;;5135692;27;20031;-65
2022/01/04 00:34:59;;;;;;;4.03;3.38;;;9.90;99.90;;;;;;5134235;27;20031;-69
2022/01/04 00:37:25;;;;;;;3.63;3.22;;;9.90;99.90;;;;;;5134900;27;20060;-66
2022/01/04 00:39:50;;;;;;;3.70;2.97;;;9.80;99.90;;;;;;5134794;27;20045;-66
2022/01/04 00:42:16;;;;;;;4.50;3.60;;;9.90;99.90;;;;;;5134304;27;20043;-66
2022/01/04 00:44:41;;;;;;;3.42;2.92;;;9.90;99.90;;;;;;5134444;27;20019;-67
2022/01/04 00:47:09;;;;;;;3.67;3.03;;;9.90;99.90;;;;;;5132891;27;20019;-72
2022/01/04 00:49:36;;;;;;;6.32;4.07;;;9.90;99.90;;;;;;5134597;27;20329;-66
2022/01/04 00:52:01;;;;;;;4.00;3.45;;;9.80;99.90;;;;;;5134374;27;20314;-68
2022/01/04 00:54:27;;;;;;;4.25;3.25;;;9.80;99.90;;;;;;5133272;27;20076;-69
2022/01/04 00:56:53;;;;;;;4.50;3.97;;;9.80;99.90;;;;;;5133099;27;20027;-69
2022/01/04 00:59:18;;;;;;;4.50;3.08;;;9.90;99.90;;;;;;5133311;27;20027;-67
2022/01/04 01:01:44;;;;;;;6.60;3.58;;;9.90;99.90;;;;;;5132976;27;20119;-68
2022/01/04 01:04:10;;;;;;;3.92;3.45;;;10.00;99.90;;;;;;5135042;27;20057;-66
2022/01/04 01:06:36;;;;;;;5.30;3.50;;;10.00;99.90;;;;;;5135701;27;20102;-67
2022/01/04 01:09:03;;;;;;;3.90;3.15;;;10.10;99.90;;;;;;5134152;27;20462;-66
2022/01/04 01:11:29;;;;;;;5.57;4.10;;;9.90;99.90;;;;;;5134235;27;20092;-66
2022/01/04 01:13:55;;;;;;;3.85;3.25;;;9.90;99.90;;;;;;5132238;27;20023;-68
2022/01/04 01:16:20;;;;;;;4.78;3.70;;;9.90;99.90;;;;;;5134212;27;20333;-65
2022/01/04 01:18:46;;;;;;;4.35;3.70;;;9.80;99.90;;;;;;5133984;27;20031;-66
2022/01/04 01:21:12;;;;;;;3.95;3.53;;;9.80;99.90;;;;;;5131996;27;20043;-67
2022/01/04 01:23:39;;;;;;;4.05;3.10;;;9.90;99.90;;;;;;5132620;27;20034;-66
2022/01/04 01:26:06;;;;;;;4.22;3.67;;;9.90;99.90;;;;;;5133992;27;20062;-67
2022/01/04 01:28:33;;;;;;;6.53;3.30;;;9.80;99.90;;;;;;5132308;27;20118;-68
2022/01/04 01:30:59;;;;;;;3.30;3.00;;;9.90;99.90;;;;;;5133181;27;20065;-67
2022/01/04 01:33:24;;;;;;;4.03;3.03;;;9.90;99.90;;;;;;5132107;27;20050;-66
2022/01/04 01:35:51;;;;;;;3.95;3.53;;;9.90;99.90;;;;;;5133902;27;20031;-66
2022/01/04 01:38:19;;;;;;;3.65;2.83;;;10.00;99.90;;;;;;5132844;27;20023;-69
2022/01/04 01:40:45;;;;;;;4.63;3.25;;;10.00;99.90;;;;;;5134314;27;20031;-67
2022/01/04 01:43:11;;;;;;;3.63;3.13;;;10.10;99.90;;;;;;5114648;27;20391;-66
2022/01/04 01:45:37;;;;;;;6.72;2.80;;;10.10;99.90;;;;;;5133688;27;20027;-67
2022/01/04 01:48:03;;;;;;;4.32;3.90;;;10.10;99.90;;;;;;5133398;27;20027;-67
2022/01/04 01:50:29;;;;;;;3.13;2.60;;;10.10;99.90;;;;;;5133023;27;20084;-66
2022/01/04 01:52:56;;;;;;;2.65;2.03;;;10.10;99.90;;;;;;5132988;27;20031;-65
2022/01/04 01:55:24;;;;;;;5.20;2.50;;;10.00;99.90;;;;;;5133726;27;20058;-67
2022/01/04 01:57:50;;;;;;;2.47;2.28;;;10.00;99.90;;;;;;5131854;27;20030;-67
2022/01/04 02:00:19;;;;;;;3.60;2.38;;;9.90;99.90;;;;;;5131380;27;20216;-66
2022/01/04 02:02:44;;;;;;;2.85;2.55;;;9.80;99.90;;;;;;5132975;27;20483;-67
2022/01/04 02:05:11;;;;;;;2.80;2.05;;;9.90;99.90;;;;;;5131396;27;20027;-66
2022/01/04 02:07:38;;;;;;;4.47;2.13;;;9.90;99.90;;;;;;5131723;27;20030;-66
2022/01/04 02:10:07;;;;;;;1.92;1.60;;;10.10;99.90;;;;;;5131091;27;20034;-68
2022/01/04 02:12:46;;;;;;;2.38;2.17;;;10.10;99.90;;;;;;5132904;27;20031;-67
2022/01/04 02:15:33;;;;;;;2.25;1.58;;;10.10;99.90;;;;;;5131147;27;20418;-68
2022/01/04 02:17:59;;;;;;;2.58;1.83;;;10.10;99.90;;;;;;5131652;27;20039;-66
2022/01/04 02:20:25;;;;;;;3.20;2.00;;;10.10;99.90;;;;;;5131596;27;20075;-70
2022/01/04 02:22:52;;;;;;;1.95;1.63;;;10.20;99.90;;;;;;5132993;28;20463;-67
2022/01/04 02:25:18;;;;;;;2.72;1.80;;;10.20;99.90;;;;;;5133217;27;20057;-67
2022/01/04 02:27:43;;;;;;;1.67;1.35;;;10.20;99.90;;;;;;5135055;27;20031;-67
2022/01/04 02:30:14;;;;;;;2.20;1.33;;;10.10;99.90;;;;;;5090329;28;20077;-70
2022/01/04 02:32:40;;;;;;;1.95;1.40;;;10.00;99.90;;;;;;5089546;28;20058;-69
2022/01/04 02:35:07;;;;;;;1.67;1.48;;;10.00;99.90;;;;;;5089351;28;20127;-67
2022/01/04 02:37:33;;;;;;;2.35;1.50;;;10.00;99.90;;;;;;5089610;28;20040;-67
2022/01/04 02:39:59;;;;;;;1.50;1.38;;;10.00;99.90;;;;;;5089363;28;20043;-69
2022/01/04 02:42:25;;;;;;;2.42;1.65;;;10.10;99.90;;;;;;5089520;28;20094;-66
2022/01/04 02:44:50;;;;;;;1.52;1.23;;;10.10;99.90;;;;;;5089488;28;20063;-68
2022/01/04 02:47:17;;;;;;;1.85;1.50;;;10.00;99.90;;;;;;5088845;28;20347;-66
2022/01/04 02:49:43;;;;;;;3.67;1.77;;;10.00;99.90;;;;;;5072824;28;20429;-66
2022/01/04 02:52:09;;;;;;;1.17;0.90;;;10.10;99.90;;;;;;5089685;28;20173;-67
2022/01/04 02:54:35;;;;;;;1.17;1.08;;;10.20;99.90;;;;;;5091213;28;20070;-67
2022/01/04 02:57:01;;;;;;;2.85;1.40;;;10.20;99.90;;;;;;5074827;28;20028;-72
2022/01/04 02:59:27;;;;;;;2.35;1.10;;;10.20;99.90;;;;;;5074954;28;20031;-67
2022/01/04 03:01:53;;;;;;;0.98;0.82;;;10.20;99.90;;;;;;5126191;28;20044;-67
2022/01/04 03:04:20;;;;;;;0.90;0.52;;;10.30;99.90;;;;;;5132792;28;20069;-66
2022/01/04 03:06:46;;;;;;;1.33;1.05;;;10.30;99.90;;;;;;5132974;27;20371;-66
2022/01/04 03:09:12;;;;;;;1.75;1.17;;;10.40;99.90;;;;;;5132399;27;20480;-68
2022/01/04 03:11:37;;;;;;;1.95;1.55;;;10.40;99.90;;;;;;5131382;28;20023;-68
2022/01/04 03:14:03;;;;;;;1.83;1.33;;;10.40;99.90;;;;;;5130755;28;20019;-66
2022/01/04 03:16:29;;;;;;;2.42;2.22;;;10.40;99.90;;;;;;5133089;27;20019;-67
2022/01/04 03:19:09;;;;;;;2.03;1.60;;;10.40;99.90;;;;;;5132284;27;20022;-66
2022/01/04 03:21:42;;;;;;;2.58;1.83;;;10.40;99.90;;;;;;5132313;27;20051;-67
2022/01/04 03:24:11;;;;;;;2.33;2.10;;;10.40;99.90;;;;;;5132967;27;20122;-71
2022/01/04 03:26:38;;;;;;;2.47;2.10;;;10.40;99.90;;;;;;5131295;28;20110;-66
2022/01/04 03:29:05;;;;;;;3.95;2.10;;;10.40;99.90;;;;;;5131471;28;20098;-67
2022/01/04 03:31:31;;;;;;;6.32;2.35;;;10.50;99.90;;;;;;5132320;27;20142;-66
2022/01/04 03:33:57;;;;;;;2.30;1.90;;;10.50;99.90;;;;;;5132063;27;20015;-67
2022/01/04 03:36:24;;;;;;;2.80;1.83;;;10.50;99.90;;;;;;5130245;28;20172;-67
2022/01/04 03:38:53;;;;;;;3.67;1.95;;;10.50;99.90;;;;;;5132025;27;20079;-66
2022/01/04 03:41:21;;;;;;;3.25;1.92;;;10.60;99.90;;;;;;5130050;28;20396;-65
2022/01/04 03:43:47;;;;;;;3.08;2.13;;;10.60;99.90;;;;;;5132038;27;20027;-66
2022/01/04 03:46:13;;;;;;;2.47;1.73;;;10.50;99.90;;;;;;5132959;27;20027;-66
2022/01/04 03:48:39;;;;;;;5.80;3.13;;;10.50;99.90;;;;;;5135461;27;20047;-66
2022/01/04 03:51:05;;;;;;;5.97;2.30;;;10.60;99.90;;;;;;5135599;27;20083;-68
2022/01/04 03:53:31;;;;;;;2.40;2.05;;;10.50;99.90;;;;;;5134470;27;20102;-66
2022/01/04 03:55:57;;;;;;;2.45;1.70;;;10.50;99.90;;;;;;5135997;27;20076;-67
2022/01/04 03:58:23;;;;;;;1.98;1.73;;;10.50;99.90;;;;;;5135468;27;20220;-67
2022/01/04 04:00:49;;;;;;;4.13;1.90;;;10.50;99.90;;;;;;5135932;27;20520;-65
2022/01/04 04:03:16;;;;;;;2.97;2.20;;;10.50;99.90;;;;;;5133835;27;20019;-72
2022/01/04 04:05:42;;;;;;;3.83;2.15;;;10.50;99.90;;;;;;5136777;27;20364;-67
2022/01/04 04:08:08;;;;;;;3.45;2.33;;;10.50;99.90;;;;;;5136376;27;20106;-70
2022/01/04 04:10:34;;;;;;;4.90;1.88;;;10.50;99.90;;;;;;5135966;27;20019;-67
2022/01/04 04:12:59;;;;;;;5.03;2.47;;;10.40;99.90;;;;;;5125215;27;20410;-71
2022/01/04 04:15:25;;;;;;;3.58;2.15;;;10.50;99.90;;;;;;5114754;27;20030;-67
2022/01/04 04:17:51;;;;;;;2.78;2.05;;;10.40;99.90;;;;;;5116162;28;20023;-66
2022/01/04 04:20:17;;;;;;;5.95;3.25;;;10.50;99.90;;;;;;5116159;28;20377;-66
2022/01/04 04:22:42;;;;;;;3.40;2.00;;;10.50;99.90;;;;;;5117340;28;20054;-66
2022/01/04 04:25:09;;;;;;;4.32;2.70;;;10.60;99.90;;;;;;5115661;28;20034;-67
2022/01/04 04:27:34;;;;;;;3.60;2.45;;;10.50;99.90;;;;;;5114144;28;20364;-66
2022/01/04 04:30:00;;;;;;;3.42;2.70;;;10.50;99.90;;;;;;5115359;28;20077;-66
2022/01/04 04:32:26;;;;;;;3.13;2.67;;;10.50;99.90;;;;;;5114177;28;20032;-66
2022/01/04 04:34:51;;;;;;;4.38;2.92;;;10.50;99.90;;;;;;5114609;28;20076;-71
2022/01/04 04:37:17;;;;;;;3.00;2.70;;;10.50;99.90;;;;;;5113404;28;20028;-66
2022/01/04 04:39:43;;;;;;;3.65;2.90;;;10.40;99.90;;;;;;5114872;28;20023;-66
2022/01/04 04:42:08;;;;;;;3.75;2.45;;;10.40;99.90;;;;;;5112745;28;20032;-66
2022/01/04 04:44:34;;;;;;;4.13;2.90;;;10.40;99.90;;;;;;5114192;28;20024;-67
2022/01/04 04:47:00;;;;;;;4.30;2.13;;;10.40;99.90;;;;;;5114682;28;20020;-66
2022/01/04 04:49:26;;;;;;;3.17;2.25;;;10.50;99.90;;;;;;5113803;28;20274;-65
2022/01/04 04:51:51;;;;;;;4.20;2.40;;;10.50;99.90;;;;;;5114097;27;20031;-67
2022/01/04 04:54:17;;;;;;;3.75;2.45;;;10.50;99.90;;;;;;5113667;28;20375;-67
2022/01/04 04:56:42;;;;;;;3.92;2.40;;;10.50;99.90;;;;;;5113053;28;20413;-65
2022/01/04 04:59:09;;;;;;;3.20;2.53;;;10.50;99.90;;;;;;5113437;28;20044;-67
2022/01/04 05:01:35;;;;;;;3.25;2.75;;;10.50;99.90;;;;;;5114132;28;20123;-66
2022/01/04 05:04:01;;;;;;;6.70;2.70;;;10.50;99.90;;;;;;5112777;28;20028;-65
2022/01/04 05:06:27;;;;;;;7.05;3.42;;;10.50;99.90;;;;;;5112982;28;20262;-66
2022/01/04 05:08:53;;;;;;;3.75;2.92;;;10.50;99.90;;;;;;5113777;28;20415;-65
2022/01/04 05:11:18;;;;;;;4.25;2.90;;;10.50;99.90;;;;;;5113232;28;20032;-64
2022/01/04 05:13:44;;;;;;;4.85;2.65;;;10.40;99.90;;;;;;5112803;28;20024;-67
2022/01/04 05:16:10;;;;;;;4.75;2.90;;;10.50;99.90;;;;;;5113384;28;20035;-65
2022/01/04 05:18:36;;;;;;;2.83;2.25;;;10.50;99.90;;;;;;5112464;28;20059;-67
2022/01/04 05:21:03;;;;;;;4.38;2.70;;;10.50;99.90;;;;;;5111765;28;20471;-66
2022/01/04 05:23:29;;;;;;;3.10;2.80;;;10.40;99.90;;;;;;5113384;28;20089;-69
2022/01/04 05:25:55;;;;;;;4.90;2.90;;;10.40;99.90;;;;;;5112536;28;20032;-66
2022/01/04 05:28:21;;;;;;;4.10;2.75;;;10.40;99.90;;;;;;5112587;28;20100;-66
2022/01/04 05:30:46;;;;;;;4.10;2.72;;;10.40;99.90;;;;;;5113263;28;20465;-66
2022/01/04 05:33:12;;;;;;;3.25;2.35;;;10.40;99.90;;;;;;5112449;28;20031;-66
2022/01/04 05:35:38;;;;;;;3.22;2.50;;;10.50;99.90;;;;;;5113308;28;20030;-65
2022/01/04 05:38:03;;;;;;;3.38;2.45;;;10.50;99.90;;;;;;5112868;28;20027;-65
2022/01/04 05:40:29;;;;;;;3.55;2.80;;;10.50;99.90;;;;;;5111108;28;20519;-65
2022/01/04 05:42:55;;;;;;;3.58;2.67;;;10.40;99.90;;;;;;5111687;28;20105;-64
2022/01/04 05:45:21;;;;;;;4.05;2.63;;;10.50;99.90;;;;;;5112443;28;20028;-66
2022/01/04 05:47:47;;;;;;;3.20;2.38;;;10.50;99.90;;;;;;5113011;28;20023;-65
2022/01/04 05:50:12;;;;;;;4.97;2.50;;;10.40;99.90;;;;;;5110848;28;20135;-66
2022/01/04 05:52:38;;;;;;;3.88;2.65;;;10.50;99.90;;;;;;5112950;28;20472;-66
2022/01/04 05:55:04;;;;;;;3.03;2.40;;;10.40;99.90;;;;;;5112632;28;20441;-66
2022/01/04 05:57:30;;;;;;;6.68;3.03;;;10.40;99.90;;;;;;5111018;28;20453;-67
2022/01/04 05:59:57;;;;;;;4.63;2.55;;;10.40;99.90;;;;;;5112551;28;20019;-67
2022/01/04 06:02:23;;;;;;;3.65;2.45;;;10.40;99.90;;;;;;5111272;28;20035;-68
2022/01/04 06:04:49;;;;;;;3.55;2.80;;;10.30;99.90;;;;;;5111313;28;20450;-66
2022/01/04 06:07:14;;;;;;;3.17;2.40;;;10.40;99.90;;;;;;5110527;28;20101;-66
2022/01/04 06:09:43;;;;;;;3.30;2.20;;;10.40;99.90;;;;;;5113187;28;20093;-66
2022/01/04 06:14:54;;;;;;;3.83;1.20;;;10.50;99.90;;;;;;5115680;28;20128;-66
2022/01/04 06:17:29;;;;;;;2.65;1.75;;;10.50;99.90;;;;;;5111872;28;20492;-66
2022/01/04 06:19:55;;;;;;;2.42;1.30;;;10.40;99.90;;;;;;5111422;28;20051;-66
2022/01/04 06:22:23;;;;;;;2.58;1.17;;;10.50;99.90;;;;;;5111019;28;20031;-66
2022/01/04 06:24:48;;;;;;;3.15;1.50;;;10.30;99.90;;;;;;5112806;28;20034;-66
2022/01/04 06:27:14;;;;;;;2.83;1.10;;;10.20;99.90;;;;;;5111988;28;20028;-66
2022/01/04 06:29:41;;;;;;;2.28;0.95;;;10.20;99.90;;;;;;5111002;28;20031;-66
2022/01/04 06:32:07;;;;;;;2.03;1.20;;;10.10;99.90;;;;;;5110970;28;20126;-68
2022/01/04 06:34:34;;;;;;;2.00;1.10;;;10.00;99.90;;;;;;5111795;28;20031;-66
2022/01/04 06:37:00;;;;;;;2.45;0.82;;;10.00;99.90;;;;;;5111397;28;20023;-66
2022/01/04 06:39:26;;;;;;;2.42;0.90;;;10.00;99.90;;;;;;5112083;28;20368;-67
2022/01/04 06:41:51;;;;;;;1.10;0.52;;;9.90;99.90;;;;;;5114522;28;20419;-67
2022/01/04 06:44:17;;;;;;;1.10;0.50;;;9.80;99.90;;;;;;5112624;28;20028;-66
2022/01/04 06:46:45;;;;;;;1.15;0.45;;;9.80;99.90;;;;;;5110891;28;20474;-66
2022/01/04 06:49:15;;;;;;;0.50;0.40;;;9.80;99.90;;;;;;5112132;28;20032;-67
2022/01/04 06:51:41;;;;;;;1.48;0.80;;;9.70;99.90;;;;;;5110266;28;20031;-68
2022/01/04 06:54:08;;;;;;;1.38;0.68;;;9.70;99.90;;;;;;5112353;28;20063;-68
2022/01/04 06:56:34;;;;;;;2.13;0.70;;;9.70;99.90;;;;;;5111489;28;20265;-66
2022/01/04 06:59:00;;;;;;;1.27;0.88;;;9.60;99.90;;;;;;5112556;28;20383;-71
2022/01/04 07:01:25;;;;;;;1.27;0.85;;;9.60;99.90;;;;;;5112214;28;20032;-66
2022/01/04 07:03:51;;;;;;;1.02;0.70;;;9.60;99.90;;;;;;5112110;28;20059;-66
2022/01/04 07:06:17;;;;;;;1.98;1.25;;;9.70;99.90;;;;;;5111262;28;20408;-66
2022/01/04 07:08:43;;;;;;;1.75;1.25;;;9.60;99.90;;;;;;5112116;28;20031;-67
2022/01/04 07:11:09;;;;;;;3.38;1.50;;;9.60;99.90;;;;;;5112096;28;20388;-67
2022/01/04 07:13:34;;;;;;;1.70;1.60;;;9.90;99.90;;;;;;5110108;28;20276;-70
2022/01/04 07:16:00;;;;;;;2.22;1.52;;;9.60;99.90;;;;;;5111679;28;20055;-66
2022/01/04 07:18:26;;;;;;;3.42;2.20;;;9.60;99.90;;;;;;5110089;28;20030;-66
2022/01/04 07:20:52;;;;;;;2.25;1.50;;;9.70;99.90;;;;;;5113674;28;20088;-67
2022/01/04 07:23:17;;;;;;;2.80;1.50;;;9.60;99.90;;;;;;5113815;28;20035;-65
2022/01/04 07:25:43;;;;;;;1.60;1.50;;;9.60;99.90;;;;;;5115766;28;20019;-66
2022/01/04 07:28:09;;;;;;;2.38;1.30;;;9.60;99.90;;;;;;5115447;28;20030;-66
2022/01/04 07:30:35;;;;;;;1.80;1.08;;;9.50;99.90;;;;;;5114922;28;20069;-66
2022/01/04 07:33:01;;;;;;;2.20;0.93;;;9.40;99.90;;;;;;5114364;28;20059;-68
2022/01/04 07:35:26;;;;;;;2.22;0.80;;;9.40;99.90;;;;;;5115123;28;20031;-67
2022/01/04 07:37:52;;;;;;;1.25;0.52;;;9.20;99.90;;;;;;5116817;28;20108;-67
2022/01/04 07:40:20;;;;;;;5.15;1.05;;;9.30;99.90;;;;;;5115442;28;20020;-65
2022/01/04 07:42:46;;;;;;;4.63;1.75;;;9.30;99.90;;;;;;5116008;28;20062;-67
2022/01/04 07:45:13;;;;;;;1.17;0.57;;;9.40;99.90;;;;;;5114825;28;20036;-67
2022/01/04 07:47:41;;;;;;;1.27;0.88;;;9.40;99.90;;;;;;5114507;28;20415;-68
2022/01/04 07:50:07;;;;;;;1.73;0.90;;;9.40;99.90;;;;;;5117572;28;20396;-67
2022/01/04 07:52:33;;;;;;;2.75;0.90;;;9.30;99.90;;;;;;5115954;27;20065;-66
2022/01/04 07:55:00;;;;;;;2.72;1.27;;;9.40;99.90;;;;;;5114184;28;20038;-67
2022/01/04 07:57:25;;;;;;;3.55;1.40;;;9.40;99.90;;;;;;5114640;28;20027;-67
2022/01/04 07:59:51;;;;;;;2.70;1.02;;;9.40;99.90;;;;;;5113610;28;20047;-68
2022/01/04 08:02:17;;;;;;;1.70;0.88;;;9.40;99.90;;;;;;5115575;28;20028;-65
2022/01/04 08:04:43;;;;;;;1.63;0.73;;;9.40;99.90;;;;;;5117288;28;20475;-66
2022/01/04 08:07:09;;;;;;;2.55;1.00;;;9.30;99.90;;;;;;5115348;28;20024;-68
2022/01/04 08:09:34;;;;;;;3.13;0.70;;;9.40;99.90;;;;;;5113063;28;20024;-66
2022/01/04 08:12:00;;;;;;;1.73;0.70;;;9.40;99.90;;;;;;5113456;28;20023;-66
2022/01/04 08:14:26;;;;;;;1.45;0.60;;;9.50;99.90;;;;;;5114028;28;20027;-66
2022/01/04 08:16:53;;;;;;;1.40;0.70;;;9.40;99.90;;;;;;5114351;28;20035;-66
2022/01/04 08:19:19;;;;;;;3.88;1.02;;;9.40;99.90;;;;;;5112856;28;20051;-69
2022/01/04 08:21:45;;;;;;;0.77;0.55;;;9.30;99.90;;;;;;5114661;28;20043;-66
2022/01/04 08:24:10;;;;;;;2.05;0.93;;;9.10;99.90;;;;;;5114526;28;20054;-67
2022/01/04 08:26:36;;;;;;;3.05;1.05;;;9.10;99.90;;;;;;5113924;28;20194;-68
2022/01/04 08:29:02;;;;;;;2.47;1.13;;;9.20;99.90;;;;;;5113049;28;20028;-66
2022/01/04 08:31:28;;;;;;;1.67;0.70;;;9.10;99.90;;;;;;5111413;28;20089;-67
2022/01/04 08:33:54;;;;;;;1.27;0.77;;;9.20;99.90;;;;;;5112736;28;20066;-67
2022/01/04 08:36:21;;;;;;;0.90;0.50;;;9.20;99.90;;;;;;5113827;28;20024;-66
2022/01/04 08:38:47;;;;;;;5.07;1.50;;;9.10;99.90;;;;;;5113317;28;20024;-66
2022/01/04 08:41:13;;;;;;;1.67;0.85;;;9.20;99.90;;;;;;5113521;28;20461;-66
2022/01/04 08:43:39;;;;;;;2.75;0.95;;;9.20;99.90;;;;;;5112773;28;20042;-67
2022/01/04 08:46:05;;;;;;;2.38;1.10;;;9.30;99.90;;;;;;5113817;28;20023;-66
2022/01/04 08:48:30;;;;;;;3.47;1.70;;;9.20;99.90;;;;;;5114152;28;20027;-65
2022/01/04 08:50:56;;;;;;;2.95;1.20;;;9.30;99.90;;;;;;5114185;28;20075;-66
2022/01/04 08:53:22;;;;;;;3.22;0.80;;;9.30;99.90;;;;;;5112090;28;20032;-69
2022/01/04 08:55:47;;;;;;;4.20;1.50;;;9.30;99.90;;;;;;5113923;28;20074;-66
2022/01/04 08:58:13;;;;;;;0.77;0.47;;;9.30;99.90;;;;;;5113783;28;20350;-68
2022/01/04 09:00:39;;;;;;;2.03;0.30;;;9.30;99.90;;;;;;5113449;28;20399;-67
2022/01/04 09:03:05;;;;;;;0.95;0.50;;;9.30;99.90;;;;;;5112302;28;20122;-66
2022/01/04 09:05:31;;;;;;;2.08;0.50;;;9.30;99.90;;;;;;5113267;28;20024;-68
2022/01/04 09:07:57;;;;;;;2.15;0.40;;;9.30;99.90;;;;;;5114895;27;20505;-67
2022/01/04 09:10:24;;;;;;;2.95;0.30;;;9.30;99.90;;;;;;5121721;27;20052;-67
2022/01/04 09:13:01;;;;;;;0.82;0.25;;;9.20;99.90;;;;;;5112145;28;20111;-69
2022/01/04 09:15:31;;;;;;;1.40;0.50;;;9.20;99.90;;;;;;5111897;28;20039;-71
2022/01/04 09:20:45;;;;;;;0.60;0.40;;;11.50;99.90;;;;;;5114825;28;20051;-69
2022/01/04 09:23:18;;;;;;;1.80;0.50;;;10.60;99.90;;;;;;5117685;27;20061;-69
2022/01/04 09:25:45;;;;;;;2.95;0.77;;;10.20;99.90;;;;;;5132526;27;20538;-67
2022/01/04 09:28:11;;;;;;;0.65;0.47;;;9.80;99.90;;;;;;5131978;27;20080;-66
2022/01/04 09:30:38;;;;;;;1.60;0.70;;;9.60;99.90;;;;;;5119375;27;20120;-67
2022/01/04 09:33:05;;;;;;;1.15;0.43;;;9.50;99.90;;;;;;5121996;27;20023;-67
2022/01/04 09:35:36;;;;;;;1.35;0.60;;;9.40;99.90;;;;;;5123573;27;20027;-67
2022/01/04 09:38:05;;;;;;;1.33;0.30;;;9.40;99.90;;;;;;5120328;27;20046;-66
2022/01/04 09:40:33;;;;;;;1.13;0.50;;;9.50;99.90;;;;;;5119951;27;20031;-67
2022/01/04 09:43:00;;;;;;;2.80;0.73;;;9.40;99.90;;;;;;5111025;28;20062;-67
2022/01/04 09:45:25;;;;;;;0.88;0.55;;;9.20;99.90;;;;;;5111668;28;20028;-68
2022/01/04 09:47:51;;;;;;;2.33;0.68;;;9.30;99.90;;;;;;5112560;27;20043;-67
2022/01/04 09:50:17;;;;;;;3.13;0.50;;;9.40;99.90;;;;;;5113090;28;20039;-67
2022/01/04 09:52:46;;;;;;;2.35;0.50;;;9.40;99.90;;;;;;5118735;27;20038;-67
2022/01/04 09:55:14;;;;;;;4.90;0.50;;;9.30;99.90;;;;;;5121406;27;20115;-66
2022/01/04 09:57:41;;;;;;;4.78;1.33;;;9.30;99.90;;;;;;5115499;27;20077;-66
2022/01/04 10:00:08;;;;;;;1.75;0.77;;;9.30;99.90;;;;;;5115315;27;20140;-70
2022/01/04 10:02:35;;;;;;;1.27;0.80;;;9.40;99.90;;;;;;5111043;27;20286;-69
2022/01/04 10:05:18;;;;;;;1.65;1.10;;;9.40;99.90;;;;;;5124502;27;20030;-68
2022/01/04 10:07:45;;;;;;;1.33;0.85;;;9.30;99.90;;;;;;5120771;27;20031;-66
2022/01/04 10:10:13;;;;;;;1.98;1.20;;;9.30;99.90;;;;;;5115875;27;20027;-66
2022/01/04 10:12:51;;;;;;;2.30;1.00;;;9.30;99.90;;;;;;5093871;27;20058;-66
2022/01/04 10:15:44;;;;;;;2.17;1.38;;;9.30;99.90;;;;;;5121120;27;20031;-68
2022/01/04 10:18:13;;;;;;;3.72;0.77;;;9.30;99.90;;;;;;5114686;27;20484;-67
2022/01/04 10:20:59;;;;;;;1.73;0.88;;;9.40;99.90;;;;;;5127361;27;20048;-67
2022/01/04 10:23:25;;;;;;;3.00;1.27;;;9.40;99.90;;;;;;5097664;28;20044;-67
2022/01/04 10:25:52;;;;;;;1.58;0.93;;;9.20;99.90;;;;;;5111730;28;20028;-67
2022/01/04 10:28:33;;;;;;;1.35;0.60;;;9.20;99.90;;;;;;5116965;27;20460;-67
2022/01/04 10:31:02;;;;;;;2.07;0.63;;;9.20;99.90;;;;;;5131919;27;20561;-65
2022/01/04 10:33:31;;;;;;;1.17;0.60;;;9.20;99.90;;;;;;5124950;27;20376;-68
2022/01/04 10:35:58;;;;;;;3.75;0.50;;;9.20;99.90;;;;;;5132577;27;20468;-66
2022/01/04 10:38:35;;;;;;;2.13;0.70;;;9.20;99.90;;;;;;5118386;28;20035;-68
2022/01/04 10:41:05;;;;;;;0.93;0.45;;;9.10;99.90;;;;;;5112365;28;20063;-66
2022/01/04 10:43:41;;;;;;;2.20;0.70;;;9.20;99.90;;;;;;5118646;27;20020;-67
2022/01/04 10:46:08;;;;;;;0.73;0.50;;;9.30;99.90;;;;;;5112437;28;20050;-69
2022/01/04 10:48:39;;;;;;;2.95;0.40;;;9.50;99.90;;;;;;5119672;27;20039;-69
2022/01/04 10:51:10;;;;;;;1.20;0.63;;;9.40;99.90;;;;;;5132625;27;20080;-67
2022/01/04 10:53:40;;;;;;;1.13;0.40;;;9.40;99.90;;;;;;5130749;27;20027;-69
2022/01/04 10:56:08;;;;;;;2.53;0.65;;;9.30;99.90;;;;;;5124929;27;20038;-68
2022/01/04 10:58:56;;;;;;;1.20;0.50;;;9.20;99.90;;;;;;5117481;27;20056;-66
2022/01/04 11:01:24;;;;;;;1.38;0.73;;;9.20;99.90;;;;;;5116741;28;20465;-66
2022/01/04 11:03:58;;;;;;;0.60;0.30;;;9.20;99.90;;;;;;5116081;28;20027;-66
2022/01/04 11:06:35;;;;;;;1.38;0.30;;;9.10;99.90;;;;;;5116344;28;20027;-68
2022/01/04 11:09:02;;;;;;;0.50;0.32;;;9.10;99.90;;;;;;5116464;28;20020;-72
2022/01/04 11:11:29;;;;;;;0.68;0.25;;;9.00;99.90;;;;;;5116965;28;20039;-70
2022/01/04 11:13:54;;;;;;;0.75;0.20;;;9.00;99.90;;;;;;5115316;28;20465;-68
2022/01/04 11:16:23;;;;;;;1.52;0.50;;;9.10;99.90;;;;;;5116178;28;20051;-68
2022/01/04 11:18:53;;;;;;;1.30;0.40;;;9.00;99.90;;;;;;5117075;27;20416;-76
2022/01/04 11:21:21;;;;;;;1.17;0.20;;;8.90;99.90;;;;;;5134639;27;20055;-66
2022/01/04 11:23:48;;;;;;;1.88;1.30;;;9.00;99.90;;;;;;5136152;27;20388;-68
2022/01/04 11:26:16;;;;;;;0.70;0.22;;;9.00;99.90;;;;;;5136965;27;20039;-68
2022/01/04 11:28:45;;;;;;;0.30;0.10;;;8.90;99.90;;;;;;5134780;27;20027;-66
2022/01/04 11:31:33;;;;;;;1.17;0.40;;;8.80;99.90;;;;;;5136601;27;20019;-67
2022/01/04 11:34:15;;;;;;;0.40;0.10;;;8.70;99.90;;;;;;5136773;27;20041;-69
2022/01/04 11:36:46;;;;;;;0.75;0.30;;;8.70;99.90;;;;;;5134644;27;20080;-68
2022/01/04 11:39:41;;;;;;;1.02;0.25;;;8.80;99.90;;;;;;5134521;27;20117;-68
2022/01/04 11:42:09;;;;;;;2.28;0.20;;;8.80;99.90;;;;;;5129816;27;20349;-71
2022/01/04 11:44:48;;;;;;;0.95;0.20;;;8.80;99.90;;;;;;5115810;27;20115;-68
2022/01/04 11:47:26;;;;;;;0.65;0.17;;;8.80;99.90;;;;;;5098442;28;20119;-68
2022/01/04 11:50:24;;;;;;;1.95;0.10;;;8.80;99.90;;;;;;5131785;27;20027;-69
2022/01/04 11:52:55;;;;;;;0.93;0.20;;;8.90;99.90;;;;;;5118087;27;20553;-67
2022/01/04 11:55:26;;;;;;;0.57;0.20;;;8.90;99.90;;;;;;5115212;28;20028;-68
2022/01/04 11:57:54;;;;;;;0.55;0.10;;;8.90;99.90;;;;;;5115297;27;20282;-71
2022/01/04 12:00:34;;;;;;;1.02;0.20;;;8.90;99.90;;;;;;5118753;27;20039;-69
2022/01/04 12:03:04;;;;;;;2.45;0.60;;;8.80;99.90;;;;;;5136312;27;20209;-70
2022/01/04 12:05:30;;;;;;;1.15;0.10;;;8.80;99.90;;;;;;5129397;27;20456;-66
2022/01/04 12:07:57;;;;;;;0.57;0.10;;;8.90;99.90;;;;;;5128730;27;20030;-67
2022/01/04 12:10:24;;;;;;;2.70;0.57;;;9.20;99.90;;;;;;5136062;27;20033;-68
2022/01/04 12:13:00;;;;;;;1.02;0.35;;;9.00;99.90;;;;;;5128205;27;20035;-68
2022/01/04 12:15:34;;;;;;;0.60;0.20;;;9.00;99.90;;;;;;5128603;27;20071;-67
2022/01/04 12:18:02;;;;;;;1.95;0.40;;;8.90;99.90;;;;;;5133638;27;20468;-66
2022/01/04 12:20:46;;;;;;;1.65;0.60;;;8.90;99.90;;;;;;5116996;27;20442;-67
2022/01/04 12:23:31;;;;;;;0.77;0.30;;;8.90;99.90;;;;;;5116828;27;20117;-67
2022/01/04 12:26:03;;;;;;;1.98;0.50;;;8.80;99.90;;;;;;5128116;27;20085;-67
2022/01/04 12:28:32;;;;;;;;;;;8.80;99.90;;;;;;5121639;27;20024;-68
2022/01/04 12:31:32;;;;;;;0.80;0.40;;;8.80;99.90;;;;;;5121143;27;19903;-67
2022/01/04 12:34:02;;;;;;;1.45;0.60;;;8.80;99.90;;;;;;5107240;27;20077;-80
2022/01/04 12:36:42;;;;;;;1.80;0.57;;;8.90;99.90;;;;;;5131188;27;20023;-75
2022/01/04 12:39:12;;;;;;;0.88;0.55;;;8.90;99.90;;;;;;5116930;27;20043;-74
2022/01/04 12:41:41;;;;;;;1.67;0.80;;;9.00;99.90;;;;;;5122570;27;20399;-72
2022/01/04 12:44:08;;;;;;;1.38;0.50;;;8.90;99.90;;;;;;5125247;27;20046;-77
2022/01/04 12:46:45;;;;;;;2.15;0.50;;;8.90;99.90;;;;;;5120691;27;20059;-67
2022/01/04 12:49:13;;;;;;;4.43;1.15;;;8.90;99.90;;;;;;5129833;27;20065;-67
2022/01/04 12:52:03;;;;;;;2.33;0.70;;;8.80;99.90;;;;;;5129195;27;20053;-72
2022/01/04 12:54:40;;;;;;;2.20;0.85;;;8.90;99.90;;;;;;5134568;27;20042;-68
2022/01/04 12:57:11;;;;;;;2.35;0.50;;;8.90;99.90;;;;;;5134825;27;20061;-67
2022/01/04 12:59:57;;;;;;;2.40;0.68;;;8.90;99.90;;;;;;5130594;27;20039;-68
2022/01/04 13:02:24;;;;;;;0.98;0.52;;;8.90;99.90;;;;;;5113951;27;20508;-67
2022/01/04 13:05:06;;;;;;;1.05;0.40;;;8.80;99.90;;;;;;5117364;27;20024;-66